Time;durP1;ratioP1;P1;durP2;ratioP2;P2;SDS_P1;SDS_P2;PMS_P1;PMS_P2;Temp;Humidity;BMP_temperature;BMP_pressure;BME280_temperature;BME280_humidity;BME280_pressure;Samples;Min_cycle;Max_cycle;Signal;HPM_P1;HPM_P2
2022/06/11 00:01:36;;;;;;;15.70;5.90;;;;;17.90;97213.20;;;;108644;1271;41731;-66
2022/06/11 00:04:10;;;;;;;14.30;6.50;;;;;17.82;97206.20;;;;108733;1268;41995;-66
2022/06/11 00:06:42;;;;;;;12.40;6.20;;;;;17.80;97214.00;;;;108835;1270;41634;-66
2022/06/11 00:09:14;;;;;;;11.40;6.00;;;;;17.90;97220.60;;;;108816;1270;41184;-66
2022/06/11 00:11:45;;;;;;;15.40;6.20;;;;;17.90;97224.40;;;;108867;1270;41170;-66
2022/06/11 00:14:15;;;;;;;14.40;6.60;;;;;17.90;97219.00;;;;108810;1270;41705;-65
2022/06/11 00:16:46;;;;;;;14.80;6.10;;;;;18.00;97212.20;;;;108723;1270;41286;-66
2022/06/11 00:19:20;;;;;;;11.10;5.40;;;;;18.00;97208.60;;;;108743;1270;42207;-65
2022/06/11 00:21:53;;;;;;;11.30;5.00;;;;;17.98;97211.40;;;;108963;1270;41640;-67
2022/06/11 00:24:27;;;;;;;11.40;4.60;;;;;18.00;97207.80;;;;108590;1270;41162;-66
2022/06/11 00:27:00;;;;;;;12.90;5.40;;;;;18.00;97210.40;;;;108834;1270;43417;-66
2022/06/11 00:29:32;;;;;;;11.90;6.20;;;;;18.00;97206.00;;;;108724;1269;42443;-67
2022/06/11 00:32:04;;;;;;;13.40;5.70;;;;;18.00;97203.20;;;;108660;1271;41655;-66
2022/06/11 00:34:34;;;;;;;11.60;5.10;;;;;18.00;97197.20;;;;108591;1271;41649;-66
2022/06/11 00:37:05;;;;;;;12.60;4.90;;;;;18.00;97196.40;;;;108778;1270;41172;-66
2022/06/11 00:39:36;;;;;;;11.60;5.20;;;;;18.00;97203.00;;;;108798;1270;41658;-65
2022/06/11 00:42:17;;;;;;;12.20;5.50;;;;;17.98;97203.40;;;;108799;1270;41801;-66
2022/06/11 00:44:46;;;;;;;11.10;5.20;;;;;17.98;97205.80;;;;108604;1270;42020;-66
2022/06/11 00:47:19;;;;;;;10.40;4.40;;;;;17.94;97205.80;;;;108555;1270;41295;-66
2022/06/11 00:49:58;;;;;;;13.00;6.10;;;;;17.94;97202.20;;;;108958;1267;41409;-66
2022/06/11 00:52:36;;;;;;;16.50;7.10;;;;;17.90;97204.00;;;;108849;1267;41176;-65
2022/06/11 00:55:30;;;;;;;15.00;6.70;;;;;17.90;97208.60;;;;108896;1267;41181;-66
2022/06/11 00:58:03;;;;;;;13.40;5.70;;;;;17.90;97209.40;;;;108755;1268;41190;-66
2022/06/11 01:00:41;;;;;;;9.50;4.60;;;;;17.90;97208.00;;;;108889;1268;42664;-65
2022/06/11 01:03:21;;;;;;;9.70;4.50;;;;;17.90;97208.60;;;;108885;1267;42230;-67
2022/06/11 01:06:09;;;;;;;8.80;4.00;;;;;17.90;97204.40;;;;108815;1270;41302;-66
2022/06/11 01:08:53;;;;;;;8.50;3.80;;;;;17.90;97207.00;;;;108982;1267;41658;-66
2022/06/11 01:11:31;;;;;;;8.50;3.70;;;;;17.90;97203.20;;;;108820;1270;42238;-65
2022/06/11 01:14:23;;;;;;;9.30;3.80;;;;;17.90;97205.40;;;;108919;1267;41752;-66
2022/06/11 01:17:01;;;;;;;7.50;3.60;;;;;17.90;97202.80;;;;108955;1268;41976;-66
2022/06/11 01:20:03;;;;;;;11.50;4.40;;;;;17.82;97203.80;;;;108965;1267;41201;-65
2022/06/11 01:22:44;;;;;;;9.50;4.50;;;;;17.80;97208.60;;;;108982;1267;41753;-66
2022/06/11 01:25:34;;;;;;;9.60;4.70;;;;;17.80;97214.20;;;;108818;1267;41477;-67
2022/06/11 01:28:04;;;;;;;9.00;4.40;;;;;17.80;97218.00;;;;108838;1267;41301;-66
2022/06/11 01:30:38;;;;;;;;;;;;;17.76;97215.80;;;;108923;1267;41174;-66
2022/06/11 01:33:18;;;;;;;8.30;3.80;;;;;17.70;97213.40;;;;108875;1267;41971;-66
2022/06/11 01:36:08;;;;;;;7.80;3.70;;;;;17.78;97212.80;;;;108891;1267;41829;-66
2022/06/11 01:38:46;;;;;;;8.20;3.80;;;;;17.80;97220.20;;;;108880;1267;41673;-66
2022/06/11 01:41:40;;;;;;;9.80;4.30;;;;;17.80;97221.60;;;;108885;1267;41177;-66
2022/06/11 01:44:16;;;;;;;9.00;3.30;;;;;17.80;97225.20;;;;108821;1268;41289;-65
2022/06/11 01:46:51;;;;;;;8.90;3.40;;;;;17.80;97223.00;;;;108790;1267;41169;-65
2022/06/11 01:49:21;;;;;;;11.00;4.10;;;;;17.80;97222.00;;;;108813;1267;41328;-65
2022/06/11 01:51:55;;;;;;;7.70;3.50;;;;;17.80;97222.40;;;;108875;1268;42305;-66
2022/06/11 01:54:45;;;;;;;12.80;3.50;;;;;17.80;97226.00;;;;108881;1267;42312;-65
2022/06/11 01:57:34;;;;;;;7.40;3.40;;;;;17.80;97220.60;;;;109001;1267;42006;-65
2022/06/11 02:00:45;;;;;;;7.60;3.50;;;;;17.80;97219.00;;;;108960;1266;41171;-67
2022/06/11 02:03:37;;;;;;;8.60;2.90;;;;;17.80;97219.20;;;;108933;1268;41183;-66
2022/06/11 02:06:26;;;;;;;6.90;3.00;;;;;17.80;97229.80;;;;108963;1266;41198;-66
2022/06/11 02:09:24;;;;;;;8.40;3.60;;;;;17.80;97235.40;;;;108914;1267;41191;-65
2022/06/11 02:12:21;;;;;;;9.50;3.50;;;;;17.80;97232.60;;;;108955;1267;41147;-65
2022/06/11 02:15:14;;;;;;;7.80;3.30;;;;;17.80;97234.00;;;;108960;1267;41637;-64
2022/06/11 02:17:49;;;;;;;8.00;3.50;;;;;17.76;97230.60;;;;108947;1267;41415;-66
2022/06/11 02:20:25;;;;;;;7.20;3.50;;;;;17.74;97234.80;;;;108969;1267;41150;-66
2022/06/11 02:23:18;;;;;;;8.40;3.70;;;;;17.72;97234.60;;;;108769;1268;41301;-67
2022/06/11 02:25:59;;;;;;;8.90;4.30;;;;;17.70;97230.00;;;;108800;1269;41173;-66
2022/06/11 02:28:35;;;;;;;17.00;3.40;;;;;17.70;97231.80;;;;108925;1267;41632;-66
2022/06/11 02:31:08;;;;;;;8.20;3.50;;;;;17.70;97224.80;;;;108905;1267;41665;-65
2022/06/11 02:33:40;;;;;;;9.20;4.40;;;;;17.70;97222.80;;;;108951;1267;41635;-65
2022/06/11 02:36:17;;;;;;;9.90;4.10;;;;;17.70;97227.60;;;;108824;1267;41501;-66
2022/06/11 02:38:48;;;;;;;8.10;3.80;;;;;17.70;97225.60;;;;108891;1267;41742;-65
2022/06/11 02:41:21;;;;;;;7.60;3.80;;;;;17.70;97223.20;;;;108859;1267;41179;-66
2022/06/11 02:43:51;;;;;;;8.20;3.80;;;;;17.70;97232.00;;;;108758;1267;41075;-65
2022/06/11 02:49:17;;;;;;;7.60;3.60;;;;;17.60;97235.20;;;;108887;1266;41178;-65
2022/06/11 02:51:48;;;;;;;7.30;3.50;;;;;17.56;97239.00;;;;108855;1267;41401;-66
2022/06/11 02:54:20;;;;;;;7.80;3.40;;;;;17.58;97233.80;;;;109012;1267;41649;-66
2022/06/11 02:56:52;;;;;;;7.70;3.70;;;;;17.60;97233.40;;;;108810;1267;41168;-65
2022/06/11 02:59:23;;;;;;;10.60;3.90;;;;;17.60;97230.00;;;;108819;1267;41632;-66
2022/06/11 03:01:54;;;;;;;8.40;4.20;;;;;17.60;97225.80;;;;108892;1267;41221;-65
2022/06/11 03:04:27;;;;;;;9.00;4.20;;;;;17.60;97224.00;;;;108840;1267;41178;-65
2022/06/11 03:06:58;;;;;;;10.80;4.20;;;;;17.60;97225.80;;;;108847;1268;41303;-66
2022/06/11 03:09:32;;;;;;;12.40;6.30;;;;;17.60;97231.60;;;;108951;1267;41187;-67
2022/06/11 03:12:03;;;;;;;9.20;4.90;;;;;17.60;97234.00;;;;109001;1267;41234;-66
2022/06/11 03:14:33;;;;;;;9.60;4.30;;;;;17.50;97234.60;;;;108920;1267;41208;-66
2022/06/11 03:17:05;;;;;;;10.90;4.20;;;;;17.50;97243.60;;;;108887;1267;42219;-65
2022/06/11 03:19:35;;;;;;;8.70;3.60;;;;;17.58;97237.60;;;;108915;1267;42591;-66
2022/06/11 03:22:05;;;;;;;8.70;4.20;;;;;17.60;97244.40;;;;108812;1268;41194;-66
2022/06/11 03:24:36;;;;;;;9.60;5.00;;;;;17.70;97239.00;;;;108902;1267;41198;-67
2022/06/11 03:27:06;;;;;;;;;;;;;17.70;97242.20;;;;108875;1268;41181;-66
2022/06/11 03:29:36;;;;;;;11.80;4.40;;;;;17.78;97239.60;;;;108844;1269;41221;-66
2022/06/11 03:32:06;;;;;;;8.50;4.20;;;;;17.80;97240.00;;;;108872;1267;41573;-66
2022/06/11 03:34:36;;;;;;;8.40;3.50;;;;;17.80;97241.60;;;;108850;1267;41194;-66
2022/06/11 03:37:06;;;;;;;7.90;3.10;;;;;17.86;97252.60;;;;108945;1267;41419;-66
2022/06/11 03:39:36;;;;;;;6.90;3.20;;;;;17.90;97248.40;;;;108960;1267;41189;-66
2022/06/11 03:42:06;;;;;;;7.10;3.20;;;;;18.00;97245.00;;;;108990;1267;41213;-66
2022/06/11 03:44:36;;;;;;;7.60;3.40;;;;;18.00;97238.80;;;;108865;1267;41638;-65
2022/06/11 03:47:06;;;;;;;7.40;3.50;;;;;18.00;97244.00;;;;108853;1267;41159;-66
2022/06/11 03:49:37;;;;;;;8.80;4.30;;;;;18.10;97250.60;;;;108845;1268;41170;-67
2022/06/11 03:52:08;;;;;;;6.80;3.20;;;;;18.10;97261.20;;;;108869;1267;41300;-65
2022/06/11 03:54:38;;;;;;;7.50;3.50;;;;;18.10;97260.60;;;;108891;1267;42279;-66
2022/06/11 03:57:08;;;;;;;7.10;3.20;;;;;18.10;97264.00;;;;108865;1267;42506;-65
2022/06/11 03:59:38;;;;;;;7.60;3.30;;;;;18.10;97266.80;;;;109058;1267;41261;-66
2022/06/11 04:02:09;;;;;;;7.80;3.40;;;;;18.18;97268.60;;;;108876;1267;41176;-65
2022/06/11 04:04:38;;;;;;;8.50;3.90;;;;;18.20;97265.00;;;;108896;1267;41648;-65
2022/06/11 04:07:09;;;;;;;7.70;3.50;;;;;18.20;97266.80;;;;108900;1267;41429;-66
2022/06/11 04:09:42;;;;;;;10.00;3.50;;;;;18.20;97270.80;;;;108806;1269;42863;-66
2022/06/11 04:12:15;;;;;;;7.60;3.40;;;;;18.20;97272.40;;;;108904;1267;41200;-66
2022/06/11 04:14:48;;;;;;;7.60;3.50;;;;;18.20;97270.20;;;;108806;1269;41416;-66
2022/06/11 04:17:27;;;;;;;10.40;4.60;;;;;18.20;97273.00;;;;109029;1267;42378;-66
2022/06/11 04:19:58;;;;;;;9.40;4.50;;;;;18.20;97268.60;;;;108881;1268;41696;-66
2022/06/11 04:22:27;;;;;;;8.80;4.00;;;;;18.20;97273.20;;;;108983;1267;42098;-67
2022/06/11 04:24:57;;;;;;;8.20;3.70;;;;;18.20;97274.40;;;;109038;1267;41162;-65
2022/06/11 04:27:26;;;;;;;10.00;4.50;;;;;18.20;97273.00;;;;108838;1267;41637;-67
2022/06/11 04:29:57;;;;;;;8.20;4.20;;;;;18.20;97271.80;;;;108930;1267;41860;-66
2022/06/11 04:32:28;;;;;;;8.50;3.80;;;;;18.20;97273.80;;;;108823;1270;41652;-65
2022/06/11 04:34:58;;;;;;;8.90;4.20;;;;;18.20;97274.00;;;;108942;1267;41268;-65
2022/06/11 04:37:30;;;;;;;9.20;4.00;;;;;18.20;97276.20;;;;108823;1269;41584;-65
2022/06/11 04:40:00;;;;;;;9.80;3.50;;;;;18.26;97276.60;;;;108808;1267;41294;-66
2022/06/11 04:42:30;;;;;;;7.10;3.30;;;;;18.30;97276.40;;;;108965;1266;41288;-66
2022/06/11 04:44:59;;;;;;;7.20;3.50;;;;;18.40;97271.40;;;;108974;1267;41158;-66
2022/06/11 04:47:29;;;;;;;7.70;3.50;;;;;18.70;97261.60;;;;108836;1267;41192;-66
2022/06/11 04:50:01;;;;;;;8.30;3.50;;;;;19.02;97257.80;;;;108875;1268;41191;-67
2022/06/11 04:52:30;;;;;;;6.90;3.30;;;;;19.20;97255.80;;;;108862;1267;41641;-67
2022/06/11 04:55:00;;;;;;;8.80;4.10;;;;;19.20;97259.20;;;;108892;1267;41288;-67
2022/06/11 04:57:29;;;;;;;9.60;3.50;;;;;19.30;97264.20;;;;108928;1267;41964;-66
2022/06/11 04:59:58;;;;;;;7.10;3.30;;;;;19.30;97269.40;;;;108879;1267;41180;-66
2022/06/11 05:02:27;;;;;;;8.00;3.80;;;;;19.40;97275.60;;;;108908;1267;41398;-66
2022/06/11 05:04:57;;;;;;;8.10;3.70;;;;;19.48;97277.40;;;;108889;1267;41167;-66
2022/06/11 05:07:26;;;;;;;8.60;4.00;;;;;19.50;97272.00;;;;108943;1267;42454;-66
2022/06/11 05:09:55;;;;;;;8.10;3.80;;;;;19.60;97268.00;;;;108867;1267;41749;-66
2022/06/11 05:12:24;;;;;;;8.30;3.50;;;;;19.90;97272.40;;;;108945;1267;42275;-66
2022/06/11 05:14:54;;;;;;;6.90;3.00;;;;;20.16;97274.40;;;;108687;1270;41171;-66
2022/06/11 05:17:23;;;;;;;8.70;3.30;;;;;20.30;97277.20;;;;108977;1267;41275;-66
2022/06/11 05:19:53;;;;;;;7.50;3.10;;;;;20.58;97286.00;;;;108912;1267;41314;-66
2022/06/11 05:22:23;;;;;;;6.30;2.90;;;;;20.80;97274.60;;;;108965;1267;41186;-67
2022/06/11 05:24:52;;;;;;;8.30;3.60;;;;;21.20;97272.40;;;;108758;1267;41159;-66
2022/06/11 05:27:24;;;;;;;7.80;3.40;;;;;21.40;97271.40;;;;108817;1267;40808;-66
2022/06/11 05:30:07;;;;;;;7.00;3.30;;;;;21.40;97271.00;;;;108760;1268;41298;-65
2022/06/11 05:32:40;;;;;;;7.30;3.20;;;;;21.50;97271.00;;;;108881;1267;42165;-66
2022/06/11 05:35:15;;;;;;;6.70;3.40;;;;;21.60;97276.60;;;;108864;1268;41673;-65
2022/06/11 05:37:46;;;;;;;10.40;3.50;;;;;21.60;97275.20;;;;108879;1267;42081;-66
2022/06/11 05:40:18;;;;;;;9.10;3.60;;;;;21.46;97279.60;;;;108811;1267;41438;-66
2022/06/11 05:42:50;;;;;;;7.60;3.20;;;;;21.40;97281.40;;;;108760;1267;41533;-66
2022/06/11 05:45:25;;;;;;;6.90;2.70;;;;;21.30;97285.40;;;;108895;1270;40978;-66
2022/06/11 05:47:56;;;;;;;6.80;2.90;;;;;21.40;97283.40;;;;108747;1270;41776;-66
2022/06/11 05:50:29;;;;;;;5.60;2.70;;;;;21.50;97282.00;;;;108726;1270;41321;-65
2022/06/11 05:52:59;;;;;;;7.00;2.80;;;;;21.54;97282.40;;;;108890;1267;41290;-66
2022/06/11 05:55:31;;;;;;;6.50;3.00;;;;;21.60;97279.80;;;;108839;1268;41296;-68
2022/06/11 05:58:02;;;;;;;6.70;2.90;;;;;21.60;97279.00;;;;108824;1270;41334;-66
2022/06/11 06:00:33;;;;;;;5.10;2.40;;;;;21.70;97284.60;;;;108643;1269;41654;-66
2022/06/11 06:03:02;;;;;;;7.30;2.80;;;;;21.80;97284.40;;;;108933;1267;41936;-65
2022/06/11 06:05:33;;;;;;;6.90;2.90;;;;;21.90;97285.80;;;;108891;1267;41163;-66
2022/06/11 06:08:02;;;;;;;7.70;2.90;;;;;22.00;97289.80;;;;108959;1267;42283;-66
2022/06/11 06:10:32;;;;;;;7.90;3.30;;;;;22.16;97292.40;;;;108780;1270;42402;-65
2022/06/11 06:13:45;;;;;;;5.50;2.50;;;;;22.20;97294.20;;;;108914;1267;41311;-66
2022/06/11 06:15:52;;;;;;;7.10;2.70;;;;;22.30;97295.80;;;;108896;1267;41651;-66
2022/06/11 06:18:21;;;;;;;7.20;2.80;;;;;22.30;97299.40;;;;108909;1267;41767;-66
2022/06/11 06:20:50;;;;;;;5.20;2.50;;;;;22.40;97297.60;;;;108972;1267;41185;-66
2022/06/11 06:23:20;;;;;;;5.70;2.50;;;;;22.46;97297.40;;;;108974;1267;41173;-66
2022/06/11 06:25:49;;;;;;;6.90;2.90;;;;;22.50;97302.20;;;;108939;1268;41766;-68
2022/06/11 06:28:19;;;;;;;8.00;3.50;;;;;22.50;97299.20;;;;108705;1267;428903;-67
2022/06/11 06:30:48;;;;;;;9.30;3.40;;;;;22.60;97299.20;;;;109015;1267;41755;-66
2022/06/11 06:33:18;;;;;;;6.70;2.80;;;;;22.62;97301.00;;;;108755;1269;41816;-67
2022/06/11 06:35:51;;;;;;;7.00;3.00;;;;;22.70;97299.00;;;;108850;1267;41287;-67
2022/06/11 06:38:21;;;;;;;7.50;2.90;;;;;23.28;97302.00;;;;108902;1267;41179;-68
2022/06/11 06:40:50;;;;;;;7.90;3.00;;;;;23.80;97305.40;;;;108943;1267;41399;-66
2022/06/11 06:43:20;;;;;;;8.40;3.80;;;;;24.00;97308.00;;;;108923;1267;41179;-66
2022/06/11 06:45:50;;;;;;;8.30;3.60;;;;;24.18;97293.60;;;;108919;1267;41567;-66
2022/06/11 06:48:19;;;;;;;8.00;3.30;;;;;24.90;97298.60;;;;108837;1267;41627;-67
2022/06/11 06:50:49;;;;;;;8.70;3.30;;;;;25.56;97301.40;;;;108798;1270;41979;-67
2022/06/11 06:53:18;;;;;;;9.00;3.60;;;;;26.04;97292.40;;;;108952;1267;41288;-67
2022/06/11 06:55:48;;;;;;;8.10;3.40;;;;;27.08;97287.20;;;;108848;1267;41322;-67
2022/06/11 06:58:18;;;;;;;5.90;2.60;;;;;27.86;97288.60;;;;108897;1266;41179;-66
2022/06/11 07:00:47;;;;;;;10.20;3.60;;;;;28.92;97290.40;;;;108830;1268;41361;-67
2022/06/11 07:03:16;;;;;;;10.10;4.00;;;;;29.94;97290.00;;;;108767;1269;41174;-67
2022/06/11 07:05:45;;;;;;;10.30;3.70;;;;;30.18;97287.00;;;;108806;1269;41169;-66
2022/06/11 07:08:15;;;;;;;7.90;3.70;;;;;30.62;97290.20;;;;108797;1267;41261;-67
2022/06/11 07:10:53;;;;;;;8.80;3.40;;;;;30.22;97297.80;;;;108913;1267;41181;-67
2022/06/11 07:13:22;;;;;;;8.30;2.70;;;;;29.80;97295.60;;;;108954;1267;41178;-67
2022/06/11 07:15:54;;;;;;;8.40;3.60;;;;;29.80;97298.00;;;;108917;1267;41774;-67
2022/06/11 07:18:26;;;;;;;10.60;3.60;;;;;29.26;97302.00;;;;108855;1267;41291;-67
2022/06/11 07:20:57;;;;;;;6.50;3.00;;;;;27.78;97302.20;;;;108937;1267;41676;-67
2022/06/11 07:23:36;;;;;;;;;;;;;28.00;97301.20;;;;108826;1268;42755;-66
2022/06/11 07:26:09;;;;;;;8.70;3.30;;;;;28.00;97304.20;;;;108865;1267;41186;-67
2022/06/11 07:28:44;;;;;;;7.40;3.00;;;;;28.10;97307.40;;;;108806;1267;41726;-67
2022/06/11 07:31:13;;;;;;;6.00;2.90;;;;;28.04;97308.00;;;;108894;1267;41316;-66
2022/06/11 07:33:43;;;;;;;7.90;2.70;;;;;28.10;97307.40;;;;108785;1269;41480;-68
2022/06/11 07:36:12;;;;;;;5.40;2.20;;;;;28.10;97305.60;;;;108985;1267;41762;-68
2022/06/11 07:38:41;;;;;;;5.80;2.40;;;;;28.20;97302.80;;;;108972;1267;41297;-67
2022/06/11 07:41:10;;;;;;;6.00;2.40;;;;;28.20;97303.20;;;;108780;1270;41994;-67
2022/06/11 07:43:40;;;;;;;4.60;2.10;;;;;28.20;97303.80;;;;108747;1267;41643;-67
2022/06/11 07:46:09;;;;;;;6.10;2.20;;;;;28.30;97304.00;;;;109001;1267;42424;-67
2022/06/11 07:48:40;;;;;;;6.20;2.20;;;;;28.50;97309.00;;;;108930;1267;41165;-66
2022/06/11 07:51:09;;;;;;;7.20;2.50;;;;;28.60;97310.60;;;;108900;1267;41215;-66
2022/06/11 07:53:39;;;;;;;5.20;2.40;;;;;28.60;97306.80;;;;108808;1268;41665;-67
2022/06/11 07:56:08;;;;;;;6.80;2.30;;;;;28.60;97309.60;;;;108913;1267;41624;-67
2022/06/11 07:58:38;;;;;;;6.70;2.80;;;;;28.70;97309.80;;;;108849;1267;41355;-67
2022/06/11 08:01:07;;;;;;;7.20;2.70;;;;;28.70;97305.20;;;;108908;1270;41184;-68
2022/06/11 08:03:38;;;;;;;5.20;2.40;;;;;28.30;97305.80;;;;108989;1267;41164;-68
2022/06/11 08:06:08;;;;;;;5.60;2.40;;;;;28.40;97307.60;;;;109037;1267;41299;-67
2022/06/11 08:08:38;;;;;;;5.80;2.40;;;;;28.56;97305.80;;;;108702;1268;41409;-66
2022/06/11 08:11:07;;;;;;;5.60;2.40;;;;;28.70;97307.40;;;;108930;1267;41274;-67
2022/06/11 08:13:37;;;;;;;5.30;2.40;;;;;28.70;97302.00;;;;108882;1267;41181;-67
2022/06/11 08:16:06;;;;;;;5.10;2.20;;;;;28.90;97305.00;;;;109011;1267;41290;-68
2022/06/11 08:18:35;;;;;;;4.90;2.10;;;;;29.10;97301.00;;;;108913;1269;41175;-68
2022/06/11 08:21:05;;;;;;;6.20;2.50;;;;;29.20;97296.60;;;;108930;1267;41300;-68
2022/06/11 08:23:36;;;;;;;6.70;2.30;;;;;29.20;97295.40;;;;109064;1267;41150;-67
2022/06/11 08:26:06;;;;;;;5.70;2.30;;;;;29.20;97294.00;;;;109055;1267;41380;-69
2022/06/11 08:28:35;;;;;;;6.00;2.20;;;;;29.20;97291.60;;;;108855;1267;41173;-66
2022/06/11 08:31:05;;;;;;;5.00;2.20;;;;;29.26;97291.60;;;;108899;1267;41744;-67
2022/06/11 08:33:34;;;;;;;8.10;2.40;;;;;29.42;97291.00;;;;109107;1267;42479;-68
2022/06/11 08:36:03;;;;;;;6.20;2.10;;;;;29.60;97286.80;;;;109282;1266;41469;-68
2022/06/11 08:38:32;;;;;;;3.80;1.80;;;;;29.82;97280.20;;;;109106;1267;41679;-67
2022/06/11 08:41:02;;;;;;;5.60;2.10;;;;;30.14;97275.40;;;;109050;1267;41288;-68
2022/06/11 08:43:36;;;;;;;3.50;1.80;;;;;30.40;97277.20;;;;108872;1269;41663;-67
2022/06/11 08:46:18;;;;;;;6.40;2.30;;;;;30.70;97276.40;;;;108881;1270;41634;-67
2022/06/11 08:49:22;;;;;;;5.00;2.10;;;;;30.80;97286.60;;;;108775;1267;41287;-67
2022/06/11 08:52:04;;;;;;;6.00;2.10;;;;;30.84;97280.40;;;;108848;1267;42058;-67
2022/06/11 08:54:36;;;;;;;4.20;2.00;;;;;30.80;97276.00;;;;108947;1267;41733;-66
2022/06/11 08:57:07;;;;;;;3.80;1.70;;;;;31.00;97270.20;;;;108782;1268;41297;-68
2022/06/11 08:59:55;;;;;;;4.80;1.90;;;;;31.24;97272.20;;;;108732;1270;41176;-68
2022/06/11 09:02:42;;;;;;;4.60;2.10;;;;;31.50;97264.00;;;;108803;1267;41956;-68
2022/06/11 09:05:42;;;;;;;5.20;2.00;;;;;31.44;97264.80;;;;108785;1268;41172;-67
2022/06/11 09:08:18;;;;;;;4.00;1.90;;;;;31.30;97265.20;;;;108823;1267;41186;-68
2022/06/11 09:10:52;;;;;;;4.50;2.00;;;;;30.52;97253.80;;;;108909;1267;41638;-68
2022/06/11 09:13:33;;;;;;;4.10;1.80;;;;;30.80;97261.40;;;;108855;1267;42478;-68
2022/06/11 09:16:21;;;;;;;5.00;2.10;;;;;31.00;97261.80;;;;108914;1267;41175;-68
2022/06/11 09:18:59;;;;;;;6.90;2.40;;;;;31.28;97265.00;;;;108946;1267;41978;-69
2022/06/11 09:21:41;;;;;;;4.50;2.00;;;;;31.60;97252.00;;;;108914;1269;41180;-68
2022/06/11 09:24:26;;;;;;;5.20;2.10;;;;;32.12;97263.40;;;;109005;1267;41170;-69
2022/06/11 09:27:24;;;;;;;6.20;2.00;;;;;32.56;97256.80;;;;108803;1269;41168;-67
2022/06/11 09:30:11;;;;;;;4.70;2.10;;;;;32.80;97260.80;;;;109053;1267;41242;-68
2022/06/11 09:32:51;;;;;;;7.40;2.30;;;;;32.74;97256.00;;;;108943;1266;42496;-67
2022/06/11 09:35:22;;;;;;;6.20;2.10;;;;;31.88;97262.00;;;;108937;1267;42076;-68
2022/06/11 09:38:16;;;;;;;5.70;2.20;;;;;31.14;97265.20;;;;108952;1267;41166;-67
2022/06/11 09:40:52;;;;;;;6.60;2.30;;;;;30.44;97262.40;;;;108914;1267;41403;-67
2022/06/11 09:43:50;;;;;;;5.40;1.90;;;;;29.86;97263.80;;;;108940;1267;41207;-67
2022/06/11 09:46:28;;;;;;;5.50;2.30;;;;;29.48;97270.80;;;;108981;1267;41166;-68
2022/06/11 09:49:05;;;;;;;5.70;2.10;;;;;29.30;97266.80;;;;109047;1267;41176;-67
2022/06/11 09:52:07;;;;;;;6.40;2.20;;;;;29.10;97268.20;;;;109038;1267;41188;-66
2022/06/11 09:54:42;;;;;;;5.40;2.10;;;;;29.00;97272.60;;;;108944;1267;41298;-68
2022/06/11 09:57:20;;;;;;;5.30;2.20;;;;;28.86;97270.00;;;;109077;1267;41173;-68
2022/06/11 09:59:56;;;;;;;6.30;2.20;;;;;28.70;97273.80;;;;108881;1269;42124;-67
2022/06/11 10:02:52;;;;;;;4.20;2.00;;;;;28.46;97274.60;;;;108987;1267;41172;-68
2022/06/11 10:06:01;;;;;;;5.70;2.20;;;;;28.20;97275.40;;;;108998;1267;41155;-68
2022/06/11 10:08:51;;;;;;;6.00;2.40;;;;;27.88;97276.20;;;;108959;1267;41923;-67
2022/06/11 10:11:44;;;;;;;5.30;2.20;;;;;27.60;97277.60;;;;108914;1267;41231;-68
2022/06/11 10:14:34;;;;;;;4.50;2.00;;;;;27.40;97286.20;;;;108971;1268;41283;-68
2022/06/11 10:17:11;;;;;;;6.50;2.20;;;;;27.20;97286.80;;;;108965;1267;41665;-68
2022/06/11 10:19:50;;;;;;;5.00;2.10;;;;;26.90;97283.40;;;;108915;1267;41192;-68
2022/06/11 10:22:36;;;;;;;6.00;2.00;;;;;26.70;97294.60;;;;108912;1267;41168;-68
2022/06/11 10:25:38;;;;;;;9.70;2.40;;;;;26.50;97294.40;;;;109029;1267;41636;-67
2022/06/11 10:28:20;;;;;;;9.50;2.70;;;;;26.20;97298.20;;;;109053;1267;41153;-68
2022/06/11 10:30:56;;;;;;;6.40;2.70;;;;;25.90;97306.20;;;;108970;1267;41279;-70
2022/06/11 10:33:44;;;;;;;7.00;2.70;;;;;25.72;97304.60;;;;109030;1267;41180;-67
2022/06/11 10:36:15;;;;;;;8.50;3.00;;;;;25.40;97301.20;;;;109026;1267;41209;-67
2022/06/11 10:38:56;;;;;;;6.50;2.90;;;;;25.28;97291.00;;;;108957;1266;41685;-67
2022/06/11 10:41:35;;;;;;;9.00;2.80;;;;;25.10;97288.00;;;;109067;1267;41632;-66
2022/06/11 10:44:10;;;;;;;7.00;2.70;;;;;25.00;97285.20;;;;108967;1267;41179;-66
2022/06/11 10:46:40;;;;;;;6.90;2.80;;;;;24.88;97293.80;;;;108953;1267;41632;-69
2022/06/11 10:49:13;;;;;;;8.20;3.20;;;;;24.80;97291.20;;;;108804;1265;40805;-68
2022/06/11 10:51:45;;;;;;;8.20;2.70;;;;;24.80;97298.20;;;;108914;1267;41385;-67
2022/06/11 10:54:21;;;;;;;7.00;2.80;;;;;24.86;97298.20;;;;108805;1267;41849;-67
2022/06/11 10:56:59;;;;;;;5.60;2.50;;;;;25.64;97287.60;;;;108809;1267;41748;-67
2022/06/11 10:59:40;;;;;;;6.80;2.80;;;;;26.92;97271.00;;;;108926;1266;41202;-67
2022/06/11 11:02:34;;;;;;;5.30;2.30;;;;;27.94;97263.20;;;;108933;1267;41284;-68
2022/06/11 11:05:12;;;;;;;4.50;2.10;;;;;29.18;97264.60;;;;108979;1267;41592;-68
2022/06/11 11:07:57;;;;;;;7.10;2.20;;;;;29.00;97261.20;;;;108956;1268;41415;-67
2022/06/11 11:10:35;;;;;;;5.40;2.20;;;;;28.60;97256.00;;;;108890;1267;41976;-67
2022/06/11 11:13:35;;;;;;;5.50;2.00;;;;;28.30;97257.00;;;;108934;1267;41634;-68
2022/06/11 11:16:13;;;;;;;6.20;2.50;;;;;27.92;97249.00;;;;108939;1267;41500;-68
2022/06/11 11:18:53;;;;;;;6.00;2.50;;;;;27.70;97245.60;;;;108806;1267;41279;-67
2022/06/11 11:21:31;;;;;;;5.20;2.20;;;;;27.40;97248.00;;;;108844;1267;41303;-68
2022/06/11 11:24:21;;;;;;;5.60;2.40;;;;;27.30;97247.00;;;;108925;1267;41159;-67
2022/06/11 11:27:34;;;;;;;5.20;2.40;;;;;27.18;97239.00;;;;108904;1267;41917;-68
2022/06/11 11:30:15;;;;;;;6.30;2.20;;;;;26.70;97240.40;;;;108492;1273;41211;-67
2022/06/11 11:32:47;;;;;;;6.70;2.20;;;;;26.52;97244.00;;;;108439;1273;41203;-67
2022/06/11 11:35:26;;;;;;;6.20;2.20;;;;;26.40;97238.80;;;;108405;1273;41972;-68
2022/06/11 11:38:04;;;;;;;7.10;2.70;;;;;26.30;97251.80;;;;108475;1273;41719;-67
2022/06/11 11:40:35;;;;;;;5.60;2.20;;;;;26.28;97254.40;;;;108444;1273;41559;-68
2022/06/11 11:43:09;;;;;;;5.30;2.30;;;;;26.30;97253.60;;;;108601;1273;41552;-67
2022/06/11 11:45:45;;;;;;;5.00;2.10;;;;;26.60;97255.80;;;;108416;1274;41181;-67
2022/06/11 11:48:30;;;;;;;6.30;2.30;;;;;26.80;97252.20;;;;108483;1273;42131;-68
2022/06/11 11:51:21;;;;;;;5.20;2.30;;;;;26.86;97254.40;;;;108453;1273;41304;-67
2022/06/11 11:54:00;;;;;;;5.00;2.10;;;;;26.90;97246.60;;;;108472;1273;41325;-67
2022/06/11 11:56:44;;;;;;;4.60;2.20;;;;;27.32;97237.40;;;;108438;1273;41404;-67
2022/06/11 11:59:19;;;;;;;4.80;2.00;;;;;28.52;97226.60;;;;108483;1273;41200;-67
2022/06/11 12:01:49;;;;;;;4.80;1.90;;;;;29.54;97226.20;;;;108465;1273;41209;-68
2022/06/11 12:04:26;;;;;;;3.30;1.80;;;;;30.10;97224.00;;;;108649;1268;42177;-68
2022/06/11 12:06:59;;;;;;;3.80;1.80;;;;;30.20;97222.80;;;;108881;1267;42186;-68
2022/06/11 12:09:38;;;;;;;3.60;1.80;;;;;30.22;97216.40;;;;108775;1267;41180;-68
2022/06/11 12:12:12;;;;;;;3.60;1.90;;;;;29.90;97210.80;;;;108815;1268;41320;-68
2022/06/11 12:15:12;;;;;;;4.30;1.90;;;;;29.74;97215.20;;;;108935;1267;41223;-67
2022/06/11 12:17:54;;;;;;;5.60;2.10;;;;;29.60;97219.00;;;;108889;1268;41214;-67
2022/06/11 12:20:41;;;;;;;4.30;1.90;;;;;29.68;97211.80;;;;108795;1267;41234;-67
2022/06/11 12:23:39;;;;;;;4.60;1.90;;;;;29.42;97213.80;;;;108852;1267;41684;-67
2022/06/11 12:26:18;;;;;;;4.20;1.90;;;;;29.20;97210.60;;;;108792;1267;41189;-68
2022/06/11 12:29:18;;;;;;;5.20;2.00;;;;;29.20;97211.00;;;;108859;1267;41409;-67
2022/06/11 12:31:47;;;;;;;;;;;;;29.32;97204.20;;;;108283;1276;41291;-67
2022/06/11 12:34:18;;;;;;;3.60;1.80;;;;;29.50;97199.00;;;;108446;1273;41648;-68
2022/06/11 12:37:06;;;;;;;5.30;2.00;;;;;29.60;97189.40;;;;108437;1273;41300;-68
2022/06/11 12:40:00;;;;;;;5.70;2.10;;;;;29.80;97193.60;;;;108435;1275;41647;-68
2022/06/11 12:43:27;;;;;;;6.20;2.50;;;;;29.90;97190.20;;;;108617;1274;41644;-68
2022/06/11 12:46:09;;;;;;;4.60;2.00;;;;;30.00;97183.80;;;;108184;1281;41237;-67
2022/06/11 12:48:54;;;;;;;5.90;2.10;;;;;30.00;97179.00;;;;107995;1279;41762;-69
2022/06/11 12:51:38;;;;;;;4.20;2.20;;;;;30.10;97173.00;;;;108173;1279;41191;-68
2022/06/11 12:54:17;;;;;;;5.80;2.10;;;;;30.26;97165.00;;;;108132;1279;41212;-67
2022/06/11 12:57:04;;;;;;;6.20;2.50;;;;;30.50;97161.40;;;;108072;1279;41684;-67